Seastreak New York — WDA4972 — position and weather

sailwx.info

Track history (hours):
 
Tides and Currents Weather Stations Pressure Air Temp Water Temp Dewpoint Dewpoint Depression Visibility Wind Speed Wind Dir Waves Ship Positions

Seastreak New York

Owner: CIRCLE NAVIGATION, NEW YORK, NY. More information available from US FCC via Universal Licensing System and Coast Guard Vessel Documentation Center.

Last reported at 2018-May-23 22:00 UTC. Time now 2018-May-23 22:21 UTC.
Position N 40°45' W 073°58'.

; draft 4.7 m.

Type: Passenger vessel. MMSI: 367347130.

Date/timePositionNaut miles runAvg speedWind from/ knotsBaromVisibWave heightAir tempDewpointWater temp
2018-May-23 22:00N 40°45' W 073°58'9 7.1
2018-May-23 20:42N 40°36' W 074°03'529.2
2018-May-23 20:30N 40°41' W 074°02'2 4.1
2018-May-23 20:00N 40°42' W 073°59'3 6.0
2018-May-23 19:30N 40°40' W 074°01'4 2.6
2018-May-23 17:55N 40°36' W 074°03'716.4
2018-May-23 17:31N 40°42' W 074°00'1 2.1
2018-May-23 17:01N 40°42' W 074°01'6 4.2
2018-May-23 15:39N 40°36' W 074°03'430.5
2018-May-23 15:30N 40°40' W 074°03'510.4
2018-May-23 15:00N 40°44' W 073°58'815.8
2018-May-23 14:31N 40°37' W 074°03'1 1.0
2018-May-23 13:14N 40°36' W 074°03'626.6
2018-May-23 13:01N 40°42' W 074°01'3 6.6
2018-May-23 12:29N 40°45' W 073°58'612.4
2018-May-23 12:01N 40°39' W 074°02'3 0.3
2018-May-23 02:14N 40°36' W 074°03'627.7
2018-May-23 02:00N 40°42' W 074°00'3 5.1
2018-May-23 01:26N 40°45' W 073°58'819.5
2018-May-23 01:00N 40°37' W 074°03'1 0.4
2018-May-22 22:30N 40°36' W 074°03'919.3
2018-May-22 22:00N 40°45' W 073°58'612.7
2018-May-22 21:31N 40°39' W 074°02'3 2.9
2018-May-22 20:28N 40°36' W 074°03'714.2
2018-May-22 20:01N 40°42' W 074°00'3 6.5
2018-May-22 19:31N 40°39' W 074°02'3 2.0
2018-May-22 17:55N 40°36' W 074°02'717.3
2018-May-22 17:31N 40°43' W 073°59'1 2.7
2018-May-22 17:01N 40°42' W 074°00'6 4.5
2018-May-22 15:42N 40°36' W 074°03'527.5
2018-May-22 15:31N 40°42' W 074°01'3 6.1
2018-May-22 15:00N 40°43' W 073°58'713.6
2018-May-22 14:31N 40°38' W 074°03'1324.5
2018-May-22 13:59N 40°25' W 074°02'1 3.0
2018-May-22 13:30N 40°27' W 074°01'1428.6
2018-May-22 13:01N 40°41' W 074°02'5 9.7
2018-May-22 12:30N 40°45' W 073°58'612.5
2018-May-22 12:01N 40°39' W 074°02'1427.6
2018-May-22 11:30N 40°25' W 074°02'0 0.0
2018-May-22 03:01N 40°25' W 074°02'2 3.3
2018-May-22 02:34N 40°27' W 074°02'231.7
2018-May-22 02:30N 40°28' W 074°02'1427.8
2018-May-22 02:00N 40°42' W 074°00'3 5.9
2018-May-22 01:31N 40°45' W 073°58'816.8
2018-May-22 01:01N 40°37' W 074°03'1 0.3
2018-May-21 22:29N 40°36' W 074°03'914.8
2018-May-21 21:52N 40°45' W 073°58'821.6
2018-May-21 21:31N 40°38' W 074°03'1 1.4
2018-May-21 20:28N 40°36' W 074°03'613.3
2018-May-21 20:00N 40°42' W 074°00'2 4.3
2018-May-21 19:30N 40°40' W 074°01'4 2.7
2018-May-21 17:54N 40°36' W 074°03'717.4
2018-May-21 17:30N 40°42' W 073°60'1 2.2
2018-May-21 17:01N 40°42' W 074°01'6 4.4
2018-May-21 15:40N 40°36' W 074°03'528.4
2018-May-21 15:31N 40°41' W 074°02'5 9.3
2018-May-21 15:00N 40°44' W 073°58'816.2
2018-May-21 14:30N 40°37' W 074°02'1 0.5
2018-May-21 13:08N 40°36' W 074°03'430.6
2018-May-21 13:01N 40°40' W 074°03'610.0
2018-May-21 12:25N 40°45' W 073°58'613.6
2018-May-21 12:01N 40°40' W 074°01'3 0.3
2018-May-21 01:01N 40°36' W 074°03'030.6
2018-May-21 01:00N 40°37' W 074°03'916.0
2018-May-21 00:27N 40°45' W 073°58'919.6
2018-May-21 00:00N 40°36' W 074°03'0 0.1
2018-May-20 22:09N 40°36' W 074°03'428.0
2018-May-20 22:01N 40°40' W 074°01'3 6.8
2018-May-20 21:31N 40°43' W 073°58'713.3
2018-May-20 21:00N 40°37' W 074°03'0 0.3
2018-May-20 19:43N 40°36' W 074°03'628.4
2018-May-20 19:31N 40°42' W 074°00'3 5.8
2018-May-20 19:00N 40°45' W 073°58'9 6.3
2018-May-20 17:34N 40°36' W 074°03'229.3
2018-May-20 17:30N 40°38' W 074°03'815.3
2018-May-20 17:00N 40°45' W 073°58'918.9
2018-May-20 16:30N 40°36' W 074°03'1 0.5
2018-May-20 15:08N 40°37' W 074°03'430.1
2018-May-20 15:01N 40°40' W 074°01'3 6.8
2018-May-20 14:30N 40°43' W 073°58'713.1
2018-May-20 14:01N 40°37' W 074°03'1 0.1
2018-May-20 01:06N 40°36' W 074°03'334.7
2018-May-20 01:00N 40°39' W 074°02'612.2
2018-May-20 00:30N 40°45' W 073°58'714.1
2018-May-20 00:01N 40°38' W 074°02'2 1.1
2018-May-19 22:06N 40°36' W 074°03'328.6
2018-May-19 22:01N 40°39' W 074°02'4 8.7
2018-May-19 21:31N 40°43' W 073°59'612.6
2018-May-19 21:00N 40°37' W 074°03'1 0.7
2018-May-19 19:47N 40°36' W 074°03'622.4
2018-May-19 19:30N 40°42' W 074°00'2 4.6
2018-May-19 19:00N 40°44' W 073°58'9 6.0
2018-May-19 17:33N 40°36' W 074°03'127.3
2018-May-19 17:30N 40°37' W 074°03'712.6
2018-May-19 16:58N 40°43' W 073°58'714.5
2018-May-19 16:31N 40°38' W 074°03'2 1.2
2018-May-19 15:07N 40°36' W 074°03'329.3
2018-May-19 15:01N 40°39' W 074°02'4 8.7
2018-May-19 14:30N 40°43' W 073°58'611.8
2018-May-19 14:01N 40°38' W 074°03'2 0.1
2018-May-19 02:14N 40°36' W 074°03'627.0
2018-May-19 02:00N 40°42' W 074°00'3 5.8
2018-May-19 01:30N 40°45' W 073°58'917.5
2018-May-19 01:01N 40°37' W 074°03'1 0.3
2018-May-18 22:28N 40°36' W 074°03'918.6
2018-May-18 21:58N 40°45' W 073°58'919.2
2018-May-18 21:30N 40°36' W 074°03'0 0.4
2018-May-18 20:29N 40°36' W 074°03'713.8
2018-May-18 20:01N 40°42' W 074°00'5 9.9
2018-May-18 19:30N 40°37' W 074°03'1 0.9
2018-May-18 17:54N 40°36' W 074°03'616.2
2018-May-18 17:30N 40°42' W 074°00'2 3.5
2018-May-18 17:01N 40°41' W 074°01'5 3.7
2018-May-18 15:46N 40°36' W 074°03'624.4
2018-May-18 15:30N 40°42' W 074°00'3 5.2
2018-May-18 15:00N 40°44' W 073°58'713.1
2018-May-18 14:30N 40°38' W 074°02'3 2.3
2018-May-18 13:11N 40°35' W 074°03'528.6
2018-May-18 13:01N 40°41' W 074°02'5 8.1
2018-May-18 12:23N 40°45' W 073°58'514.6
2018-May-18 12:01N 40°40' W 074°03'4 0.4
2018-May-18 02:15N 40°36' W 074°03'626.9
2018-May-18 02:01N 40°42' W 074°00'3 5.6
2018-May-18 01:29N 40°45' W 073°58'917.3
2018-May-18 00:58N 40°36' W 074°03'0 0.2
2018-May-17 22:29N 40°36' W 074°03'917.1
2018-May-17 21:57N 40°45' W 073°58'817.0
2018-May-17 21:30N 40°38' W 074°03'2 2.0
2018-May-17 20:28N 40°36' W 074°03'613.8
2018-May-17 20:01N 40°42' W 074°00'4 8.1
2018-May-17 19:31N 40°38' W 074°02'2 1.5
2018-May-17 17:54N 40°36' W 074°03'616.5
2018-May-17 17:30N 40°42' W 074°00'2 3.6
2018-May-17 17:00N 40°41' W 074°02'4 3.3
2018-May-17 15:42N 40°36' W 074°03'525.5
2018-May-17 15:31N 40°41' W 074°02'4 8.1
2018-May-17 15:00N 40°44' W 073°58'714.2
2018-May-17 14:31N 40°38' W 074°03'2 1.6
2018-May-17 13:12N 40°36' W 074°03'524.0
2018-May-17 13:01N 40°41' W 074°02'5 7.7
2018-May-17 12:25N 40°45' W 073°58'512.1
2018-May-17 12:01N 40°40' W 074°01'5 0.5
2018-May-17 02:14N 40°36' W 074°03'718.6
2018-May-17 01:53N 40°42' W 074°00'0 0.4
2018-May-17 01:10N 40°42' W 074°00'427.9
2018-May-17 01:01N 40°38' W 074°03'2 0.7
2018-May-16 22:31N 40°36' W 074°03'030.1
2018-May-16 22:30N 40°36' W 074°03'917.4
2018-May-16 22:00N 40°45' W 073°58'714.5
2018-May-16 21:30N 40°38' W 074°03'2 2.1
2018-May-16 20:28N 40°36' W 074°03'613.5
2018-May-16 20:00N 40°42' W 074°00'3 6.1
2018-May-16 19:31N 40°39' W 074°02'3 2.0
2018-May-16 17:53N 40°36' W 074°03'616.9
2018-May-16 17:31N 40°42' W 074°00'1 1.1
2018-May-16 17:01N 40°42' W 074°00'6 4.4
2018-May-16 15:39N 40°36' W 074°03'427.6
2018-May-16 15:31N 40°40' W 074°03'611.2
2018-May-16 15:01N 40°44' W 073°58'713.8
2018-May-16 14:30N 40°38' W 074°02'2 1.7
2018-May-16 13:10N 40°36' W 074°03'427.8
2018-May-16 13:00N 40°40' W 074°01'5 9.4
2018-May-16 12:30N 40°45' W 073°58'5 9.7
2018-May-16 12:01N 40°41' W 074°01'5 0.5
2018-May-16 02:13N 40°36' W 074°03'626.8
2018-May-16 01:59N 40°42' W 074°00'3 6.1
2018-May-16 01:30N 40°45' W 073°58'1020.6
2018-May-16 01:00N 40°35' W 074°02'1 0.5
2018-May-15 22:30N 40°36' W 074°03'918.4
2018-May-15 22:00N 40°45' W 073°58'816.0
2018-May-15 21:30N 40°38' W 074°03'1 1.1
2018-May-15 20:28N 40°36' W 074°03'818.0
2018-May-15 20:01N 40°44' W 073°58'1019.1
2018-May-15 19:30N 40°35' W 074°03'1 0.9
2018-May-15 17:53N 40°36' W 074°02'616.4
2018-May-15 17:30N 40°42' W 074°00'1 1.7
2018-May-15 17:00N 40°41' W 074°01'5 3.9
2018-May-15 15:39N 40°36' W 074°03'428.7
2018-May-15 15:30N 40°40' W 074°01'5 9.8
2018-May-15 15:00N 40°44' W 073°58'713.7
2018-May-15 14:31N 40°38' W 074°03'2 1.7
2018-May-15 13:10N 40°36' W 074°03'428.4
2018-May-15 13:01N 40°40' W 074°01'510.3
2018-May-15 12:30N 40°45' W 073°58'611.5
2018-May-15 12:01N 40°39' W 074°02'4 0.4
2018-May-15 02:14N 40°36' W 074°03'626.1
2018-May-15 01:59N 40°42' W 074°00'3 6.1
2018-May-15 01:31N 40°45' W 073°58'816.5
2018-May-15 01:00N 40°37' W 074°03'1 0.5
2018-May-14 22:31N 40°36' W 074°03'029.8
2018-May-14 22:30N 40°36' W 074°03'918.3
2018-May-14 22:00N 40°45' W 073°58'815.4
2018-May-14 21:30N 40°38' W 074°03'2 1.7
2018-May-14 20:30N 40°36' W 074°03'713.7
2018-May-14 20:00N 40°42' W 073°60'3 6.2
2018-May-14 19:31N 40°40' W 074°02'4 2.3
2018-May-14 17:56N 40°36' W 074°03'615.4
2018-May-14 17:31N 40°42' W 074°00'0 0.6
2018-May-14 17:01N 40°42' W 074°00'6 4.8
2018-May-14 15:41N 40°36' W 074°03'529.5
2018-May-14 15:31N 40°41' W 074°02'3 6.2
2018-May-14 15:00N 40°43' W 073°58'5 9.5
2018-May-14 14:30N 40°39' W 074°02'3 2.2
2018-May-14 13:10N 40°36' W 074°03'528.3
2018-May-14 13:00N 40°40' W 074°02'510.2
2018-May-14 12:30N 40°45' W 073°58'511.0
2018-May-14 12:01N 40°40' W 074°01'3 0.3
2018-May-14 01:01N 40°37' W 074°03'231.3
2018-May-14 00:58N 40°38' W 074°03'712.6
2018-May-14 00:24N 40°45' W 073°58'820.9
2018-May-14 00:01N 40°37' W 074°03'1 0.7
2018-May-13 22:07N 40°36' W 074°03'329.4
2018-May-13 22:01N 40°39' W 074°02'  
Track history (hours):
 
Tides and Currents Weather Stations Pressure Air Temp Water Temp Dewpoint Dewpoint Depression Visibility Wind Speed Wind Dir Waves Ship Positions

Seastreak New York

Owner: CIRCLE NAVIGATION, NEW YORK, NY. More information available from US FCC via Universal Licensing System and Coast Guard Vessel Documentation Center.

Last reported at 2018-May-23 22:00 UTC. Time now 2018-May-23 22:21 UTC.
Position N 40°45' W 073°58'.

; draft 4.7 m.

Type: Passenger vessel. MMSI: 367347130.

Date/timePositionNaut miles runAvg speedWind from/ knotsBaromVisibWave heightAir tempDewpointWater temp
2018-May-23 22:00N 40°45' W 073°58'9 7.1
2018-May-23 20:42N 40°36' W 074°03'529.2
2018-May-23 20:30N 40°41' W 074°02'2 4.1
2018-May-23 20:00N 40°42' W 073°59'3 6.0
2018-May-23 19:30N 40°40' W 074°01'4 2.6
2018-May-23 17:55N 40°36' W 074°03'716.4
2018-May-23 17:31N 40°42' W 074°00'1 2.1
2018-May-23 17:01N 40°42' W 074°01'6 4.2
2018-May-23 15:39N 40°36' W 074°03'430.5
2018-May-23 15:30N 40°40' W 074°03'510.4
2018-May-23 15:00N 40°44' W 073°58'815.8
2018-May-23 14:31N 40°37' W 074°03'1 1.0
2018-May-23 13:14N 40°36' W 074°03'626.6
2018-May-23 13:01N 40°42' W 074°01'3 6.6
2018-May-23 12:29N 40°45' W 073°58'612.4
2018-May-23 12:01N 40°39' W 074°02'3 0.3
2018-May-23 02:14N 40°36' W 074°03'627.7
2018-May-23 02:00N 40°42' W 074°00'3 5.1
2018-May-23 01:26N 40°45' W 073°58'819.5
2018-May-23 01:00N 40°37' W 074°03'1 0.4
2018-May-22 22:30N 40°36' W 074°03'919.3
2018-May-22 22:00N 40°45' W 073°58'612.7
2018-May-22 21:31N 40°39' W 074°02'3 2.9
2018-May-22 20:28N 40°36' W 074°03'714.2
2018-May-22 20:01N 40°42' W 074°00'3 6.5
2018-May-22 19:31N 40°39' W 074°02'3 2.0
2018-May-22 17:55N 40°36' W 074°02'717.3
2018-May-22 17:31N 40°43' W 073°59'1 2.7
2018-May-22 17:01N 40°42' W 074°00'6 4.5
2018-May-22 15:42N 40°36' W 074°03'527.5
2018-May-22 15:31N 40°42' W 074°01'3 6.1
2018-May-22 15:00N 40°43' W 073°58'713.6
2018-May-22 14:31N 40°38' W 074°03'1324.5
2018-May-22 13:59N 40°25' W 074°02'1 3.0
2018-May-22 13:30N 40°27' W 074°01'1428.6
2018-May-22 13:01N 40°41' W 074°02'5 9.7
2018-May-22 12:30N 40°45' W 073°58'612.5
2018-May-22 12:01N 40°39' W 074°02'1427.6
2018-May-22 11:30N 40°25' W 074°02'0 0.0
2018-May-22 03:01N 40°25' W 074°02'2 3.3
2018-May-22 02:34N 40°27' W 074°02'231.7
2018-May-22 02:30N 40°28' W 074°02'1427.8
2018-May-22 02:00N 40°42' W 074°00'3 5.9
2018-May-22 01:31N 40°45' W 073°58'816.8
2018-May-22 01:01N 40°37' W 074°03'1 0.3
2018-May-21 22:29N 40°36' W 074°03'914.8
2018-May-21 21:52N 40°45' W 073°58'821.6
2018-May-21 21:31N 40°38' W 074°03'1 1.4
2018-May-21 20:28N 40°36' W 074°03'613.3
2018-May-21 20:00N 40°42' W 074°00'2 4.3
2018-May-21 19:30N 40°40' W 074°01'4 2.7
2018-May-21 17:54N 40°36' W 074°03'717.4
2018-May-21 17:30N 40°42' W 073°60'1 2.2
2018-May-21 17:01N 40°42' W 074°01'6 4.4
2018-May-21 15:40N 40°36' W 074°03'528.4
2018-May-21 15:31N 40°41' W 074°02'5 9.3
2018-May-21 15:00N 40°44' W 073°58'816.2
2018-May-21 14:30N 40°37' W 074°02'1 0.5
2018-May-21 13:08N 40°36' W 074°03'430.6
2018-May-21 13:01N 40°40' W 074°03'610.0
2018-May-21 12:25N 40°45' W 073°58'613.6
2018-May-21 12:01N 40°40' W 074°01'3 0.3
2018-May-21 01:01N 40°36' W 074°03'030.6
2018-May-21 01:00N 40°37' W 074°03'916.0
2018-May-21 00:27N 40°45' W 073°58'919.6
2018-May-21 00:00N 40°36' W 074°03'0 0.1
2018-May-20 22:09N 40°36' W 074°03'428.0
2018-May-20 22:01N 40°40' W 074°01'3 6.8
2018-May-20 21:31N 40°43' W 073°58'713.3
2018-May-20 21:00N 40°37' W 074°03'0 0.3
2018-May-20 19:43N 40°36' W 074°03'628.4
2018-May-20 19:31N 40°42' W 074°00'3 5.8
2018-May-20 19:00N 40°45' W 073°58'9 6.3
2018-May-20 17:34N 40°36' W 074°03'229.3
2018-May-20 17:30N 40°38' W 074°03'815.3
2018-May-20 17:00N 40°45' W 073°58'918.9
2018-May-20 16:30N 40°36' W 074°03'1 0.5
2018-May-20 15:08N 40°37' W 074°03'430.1
2018-May-20 15:01N 40°40' W 074°01'3 6.8
2018-May-20 14:30N 40°43' W 073°58'713.1
2018-May-20 14:01N 40°37' W 074°03'1 0.1
2018-May-20 01:06N 40°36' W 074°03'334.7
2018-May-20 01:00N 40°39' W 074°02'612.2
2018-May-20 00:30N 40°45' W 073°58'714.1
2018-May-20 00:01N 40°38' W 074°02'2 1.1
2018-May-19 22:06N 40°36' W 074°03'328.6
2018-May-19 22:01N 40°39' W 074°02'4 8.7
2018-May-19 21:31N 40°43' W 073°59'612.6
2018-May-19 21:00N 40°37' W 074°03'1 0.7
2018-May-19 19:47N 40°36' W 074°03'622.4
2018-May-19 19:30N 40°42' W 074°00'2 4.6
2018-May-19 19:00N 40°44' W 073°58'9 6.0
2018-May-19 17:33N 40°36' W 074°03'127.3
2018-May-19 17:30N 40°37' W 074°03'712.6
2018-May-19 16:58N 40°43' W 073°58'714.5
2018-May-19 16:31N 40°38' W 074°03'2 1.2
2018-May-19 15:07N 40°36' W 074°03'329.3
2018-May-19 15:01N 40°39' W 074°02'4 8.7
2018-May-19 14:30N 40°43' W 073°58'611.8
2018-May-19 14:01N 40°38' W 074°03'2 0.1
2018-May-19 02:14N 40°36' W 074°03'627.0
2018-May-19 02:00N 40°42' W 074°00'3 5.8
2018-May-19 01:30N 40°45' W 073°58'917.5
2018-May-19 01:01N 40°37' W 074°03'1 0.3
2018-May-18 22:28N 40°36' W 074°03'918.6
2018-May-18 21:58N 40°45' W 073°58'919.2
2018-May-18 21:30N 40°36' W 074°03'0 0.4
2018-May-18 20:29N 40°36' W 074°03'713.8
2018-May-18 20:01N 40°42' W 074°00'5 9.9
2018-May-18 19:30N 40°37' W 074°03'1 0.9
2018-May-18 17:54N 40°36' W 074°03'616.2
2018-May-18 17:30N 40°42' W 074°00'2 3.5
2018-May-18 17:01N 40°41' W 074°01'5 3.7
2018-May-18 15:46N 40°36' W 074°03'624.4
2018-May-18 15:30N 40°42' W 074°00'3 5.2
2018-May-18 15:00N 40°44' W 073°58'713.1
2018-May-18 14:30N 40°38' W 074°02'3 2.3
2018-May-18 13:11N 40°35' W 074°03'528.6
2018-May-18 13:01N 40°41' W 074°02'5 8.1
2018-May-18 12:23N 40°45' W 073°58'514.6
2018-May-18 12:01N 40°40' W 074°03'4 0.4
2018-May-18 02:15N 40°36' W 074°03'626.9
2018-May-18 02:01N 40°42' W 074°00'3 5.6
2018-May-18 01:29N 40°45' W 073°58'917.3
2018-May-18 00:58N 40°36' W 074°03'0 0.2
2018-May-17 22:29N 40°36' W 074°03'917.1
2018-May-17 21:57N 40°45' W 073°58'817.0
2018-May-17 21:30N 40°38' W 074°03'2 2.0
2018-May-17 20:28N 40°36' W 074°03'613.8
2018-May-17 20:01N 40°42' W 074°00'4 8.1
2018-May-17 19:31N 40°38' W 074°02'2 1.5
2018-May-17 17:54N 40°36' W 074°03'616.5
2018-May-17 17:30N 40°42' W 074°00'2 3.6
2018-May-17 17:00N 40°41' W 074°02'4 3.3
2018-May-17 15:42N 40°36' W 074°03'525.5
2018-May-17 15:31N 40°41' W 074°02'4 8.1
2018-May-17 15:00N 40°44' W 073°58'714.2
2018-May-17 14:31N 40°38' W 074°03'2 1.6
2018-May-17 13:12N 40°36' W 074°03'524.0
2018-May-17 13:01N 40°41' W 074°02'5 7.7
2018-May-17 12:25N 40°45' W 073°58'512.1
2018-May-17 12:01N 40°40' W 074°01'5 0.5
2018-May-17 02:14N 40°36' W 074°03'718.6
2018-May-17 01:53N 40°42' W 074°00'0 0.4
2018-May-17 01:10N 40°42' W 074°00'427.9
2018-May-17 01:01N 40°38' W 074°03'2 0.7
2018-May-16 22:31N 40°36' W 074°03'030.1
2018-May-16 22:30N 40°36' W 074°03'917.4
2018-May-16 22:00N 40°45' W 073°58'714.5
2018-May-16 21:30N 40°38' W 074°03'2 2.1
2018-May-16 20:28N 40°36' W 074°03'613.5
2018-May-16 20:00N 40°42' W 074°00'3 6.1
2018-May-16 19:31N 40°39' W 074°02'3 2.0
2018-May-16 17:53N 40°36' W 074°03'616.9
2018-May-16 17:31N 40°42' W 074°00'1 1.1
2018-May-16 17:01N 40°42' W 074°00'6 4.4
2018-May-16 15:39N 40°36' W 074°03'427.6
2018-May-16 15:31N 40°40' W 074°03'611.2
2018-May-16 15:01N 40°44' W 073°58'713.8
2018-May-16 14:30N 40°38' W 074°02'2 1.7
2018-May-16 13:10N 40°36' W 074°03'427.8
2018-May-16 13:00N 40°40' W 074°01'5 9.4
2018-May-16 12:30N 40°45' W 073°58'5 9.7
2018-May-16 12:01N 40°41' W 074°01'5 0.5
2018-May-16 02:13N 40°36' W 074°03'626.8
2018-May-16 01:59N 40°42' W 074°00'3 6.1
2018-May-16 01:30N 40°45' W 073°58'1020.6
2018-May-16 01:00N 40°35' W 074°02'1 0.5
2018-May-15 22:30N 40°36' W 074°03'918.4
2018-May-15 22:00N 40°45' W 073°58'816.0
2018-May-15 21:30N 40°38' W 074°03'1 1.1
2018-May-15 20:28N 40°36' W 074°03'818.0
2018-May-15 20:01N 40°44' W 073°58'1019.1
2018-May-15 19:30N 40°35' W 074°03'1 0.9
2018-May-15 17:53N 40°36' W 074°02'616.4
2018-May-15 17:30N 40°42' W 074°00'1 1.7
2018-May-15 17:00N 40°41' W 074°01'5 3.9
2018-May-15 15:39N 40°36' W 074°03'428.7
2018-May-15 15:30N 40°40' W 074°01'5 9.8
2018-May-15 15:00N 40°44' W 073°58'713.7
2018-May-15 14:31N 40°38' W 074°03'2 1.7
2018-May-15 13:10N 40°36' W 074°03'428.4
2018-May-15 13:01N 40°40' W 074°01'510.3
2018-May-15 12:30N 40°45' W 073°58'611.5
2018-May-15 12:01N 40°39' W 074°02'4 0.4
2018-May-15 02:14N 40°36' W 074°03'626.1
2018-May-15 01:59N 40°42' W 074°00'3 6.1
2018-May-15 01:31N 40°45' W 073°58'816.5
2018-May-15 01:00N 40°37' W 074°03'1 0.5
2018-May-14 22:31N 40°36' W 074°03'029.8
2018-May-14 22:30N 40°36' W 074°03'918.3
2018-May-14 22:00N 40°45' W 073°58'815.4
2018-May-14 21:30N 40°38' W 074°03'2 1.7
2018-May-14 20:30N 40°36' W 074°03'713.7
2018-May-14 20:00N 40°42' W 073°60'3 6.2
2018-May-14 19:31N 40°40' W 074°02'4 2.3
2018-May-14 17:56N 40°36' W 074°03'615.4
2018-May-14 17:31N 40°42' W 074°00'0 0.6
2018-May-14 17:01N 40°42' W 074°00'6 4.8
2018-May-14 15:41N 40°36' W 074°03'529.5
2018-May-14 15:31N 40°41' W 074°02'3 6.2
2018-May-14 15:00N 40°43' W 073°58'5 9.5
2018-May-14 14:30N 40°39' W 074°02'3 2.2
2018-May-14 13:10N 40°36' W 074°03'528.3
2018-May-14 13:00N 40°40' W 074°02'510.2
2018-May-14 12:30N 40°45' W 073°58'511.0
2018-May-14 12:01N 40°40' W 074°01'3 0.3
2018-May-14 01:01N 40°37' W 074°03'231.3
2018-May-14 00:58N 40°38' W 074°03'712.6
2018-May-14 00:24N 40°45' W 073°58'820.9
2018-May-14 00:01N 40°37' W 074°03'1 0.7
2018-May-13 22:07N 40°36' W 074°03'329.4
2018-May-13 22:01N 40°39' W 074°02'  

Dump ship's entire track history